Date,TemperatureHighF,TemperatureAvgF,TemperatureLowF,DewpointHighF,DewpointAvgF,DewpointLowF,HumidityHigh,HumidityAvg,HumidityLow,PressureMaxIn,PressureMinIn,WindSpeedMaxMPH,WindSpeedAvgMPH,GustSpeedMaxMPH,PrecipitationSumIn
2013-8-1,81,69,60,67,62,59,98,81,54,30.05,29.89,10,1,13,0.06
2013-8-2,83,72,63,70,65,61,98,80,50,29.88,29.79,7,1,12,0.41
2013-8-3,77,71,67,67,66,64,95,82,69,29.87,29.79,8,2,12,0.00
2013-8-4,81,68,56,63,59,55,96,74,43,29.87,29.76,7,1,12,0.00
2013-8-5,76,64,54,58,52,43,95,69,32,30.03,29.88,7,1,11,0.00
2013-8-6,80,65,48,57,52,47,98,69,37,30.15,30.03,7,1,11,0.00
2013-8-7,80,66,54,65,56,50,98,73,39,30.18,30.13,7,1,13,0.00
2013-8-8,79,72,61,71,67,56,92,85,74,30.13,30.02,14,3,16,0.03
2013-8-9,75,74,72,74,72,71,98,94,89,30.04,29.77,13,4,19,1.81
2013-8-10,84,75,63,73,64,54,98,71,44,30.00,29.79,11,1,14,0.00
2013-8-11,80,67,52,61,56,51,98,70,43,30.07,30.00,4,1,10,0.00
2013-8-12,81,70,59,68,63,58,98,81,50,30.03,29.92,10,1,10,0.00
2013-8-13,74,67,61,69,65,61,98,93,78,29.93,29.68,4,0,6,0.02
2013-8-14,74,67,59,64,57,52,98,73,50,29.95,29.66,9,2,14,0.00
2013-8-15,77,64,51,59,54,48,97,71,41,30.11,29.96,6,1,10,0.00
2013-8-16,78,66,52,60,56,51,98,72,43,30.19,30.11,7,1,10,0.00
2013-8-17,80,68,53,63,59,52,98,77,48,30.27,30.19,4,0,7,0.00
2013-8-18,80,67,56,66,61,56,98,82,49,30.27,30.09,4,0,6,0.01
2013-8-19,82,69,57,65,61,56,97,77,48,30.09,29.95,6,1,10,0.01
2013-8-20,87,74,61,68,64,59,97,75,41,30.08,29.97,6,1,9,0.00
2013-8-21,88,74,60,69,65,59,99,77,44,30.14,30.03,6,1,9,0.00
2013-8-22,84,73,64,74,69,63,98,89,72,30.04,29.84,11,2,22,0.06
2013-8-23,78,70,58,70,62,57,98,78,52,30.09,29.81,8,1,12,0.00
2013-8-24,75,63,51,58,51,43,96,69,33,30.33,30.09,8,1,13,0.00
2013-8-25,82,65,47,60,54,47,99,71,36,30.35,30.20,8,1,12,0.00
2013-8-26,79,71,65,68,64,59,91,79,63,30.20,29.88,7,2,13,0.00
2013-8-27,80,71,63,72,68,62,98,91,70,29.88,29.82,6,1,9,0.61
2013-8-28,85,71,61,71,66,61,99,86,57,29.95,29.84,4,1,7,0.00
2013-8-29,66,64,60,65,63,58,98,95,91,30.05,29.94,8,1,11,0.01
2013-8-30,79,68,58,70,64,57,97,88,69,30.01,29.84,6,1,9,0.00
2013-8-31,79,73,69,73,71,68,97,91,81,29.84,29.80,10,3,12,0.00